sensor_id;sensor_type;location;lat;lon;timestamp;pressure;altitude;pressure_sealevel;temperature;humidity
44027;BME280;29696;55.698;37.460;2023-02-14T00:01:59;98330.63;;;1.13;80.45
44027;BME280;29696;55.698;37.460;2023-02-14T00:04:25;98338.44;;;1.13;80.36
44027;BME280;29696;55.698;37.460;2023-02-14T00:06:51;98339.25;;;1.13;80.58
44027;BME280;29696;55.698;37.460;2023-02-14T00:09:18;98341.84;;;1.13;80.33
44027;BME280;29696;55.698;37.460;2023-02-14T00:11:44;98340.13;;;1.14;80.29
44027;BME280;29696;55.698;37.460;2023-02-14T00:14:12;98344.25;;;1.17;80.78
44027;BME280;29696;55.698;37.460;2023-02-14T00:16:57;98342.72;;;1.14;80.49
44027;BME280;29696;55.698;37.460;2023-02-14T00:19:23;98340.31;;;1.11;80.50
44027;BME280;29696;55.698;37.460;2023-02-14T00:21:50;98339.59;;;1.09;80.42
44027;BME280;29696;55.698;37.460;2023-02-14T00:24:19;98346.22;;;1.13;80.47
44027;BME280;29696;55.698;37.460;2023-02-14T00:26:47;98341.97;;;1.12;80.49
44027;BME280;29696;55.698;37.460;2023-02-14T00:29:16;98351.34;;;1.14;80.66
44027;BME280;29696;55.698;37.460;2023-02-14T00:31:43;98345.63;;;1.09;80.30
44027;BME280;29696;55.698;37.460;2023-02-14T00:34:13;98352.25;;;1.13;80.48
44027;BME280;29696;55.698;37.460;2023-02-14T00:36:41;98353.13;;;1.14;80.49
44027;BME280;29696;55.698;37.460;2023-02-14T00:39:09;98352.19;;;1.15;80.06
44027;BME280;29696;55.698;37.460;2023-02-14T00:41:37;98352.25;;;1.13;80.31
44027;BME280;29696;55.698;37.460;2023-02-14T00:44:04;98353.13;;;1.14;80.13
44027;BME280;29696;55.698;37.460;2023-02-14T00:46:31;98354.25;;;1.10;80.11
44027;BME280;29696;55.698;37.460;2023-02-14T00:48:58;98350.00;;;1.09;80.49
44027;BME280;29696;55.698;37.460;2023-02-14T00:51:24;98352.81;;;1.06;80.42
44027;BME280;29696;55.698;37.460;2023-02-14T00:53:50;98358.09;;;1.04;80.87
44027;BME280;29696;55.698;37.460;2023-02-14T00:56:18;98360.63;;;1.06;81.09
44027;BME280;29696;55.698;37.460;2023-02-14T00:58:44;98362.47;;;1.04;80.90
44027;BME280;29696;55.698;37.460;2023-02-14T01:01:12;98363.09;;;1.07;80.96
44027;BME280;29696;55.698;37.460;2023-02-14T01:03:38;98364.78;;;1.08;81.27
44027;BME280;29696;55.698;37.460;2023-02-14T01:06:05;98357.19;;;1.05;81.08
44027;BME280;29696;55.698;37.460;2023-02-14T01:08:32;98361.34;;;1.08;81.16
44027;BME280;29696;55.698;37.460;2023-02-14T01:11:10;98358.53;;;1.11;80.99
44027;BME280;29696;55.698;37.460;2023-02-14T01:13:38;98352.00;;;1.05;80.51
44027;BME280;29696;55.698;37.460;2023-02-14T01:16:07;98351.78;;;1.08;80.81
44027;BME280;29696;55.698;37.460;2023-02-14T01:18:34;98363.09;;;1.07;80.78
44027;BME280;29696;55.698;37.460;2023-02-14T01:21:31;98367.78;;;1.15;80.85
44027;BME280;29696;55.698;37.460;2023-02-14T01:24:01;98358.22;;;1.03;80.96
44027;BME280;29696;55.698;37.460;2023-02-14T01:26:28;98367.06;;;1.00;81.14
44027;BME280;29696;55.698;37.460;2023-02-14T01:28:55;98358.97;;;1.05;81.62
44027;BME280;29696;55.698;37.460;2023-02-14T01:31:27;98366.56;;;1.08;81.74
44027;BME280;29696;55.698;37.460;2023-02-14T01:33:56;98373.72;;;1.04;81.85
44027;BME280;29696;55.698;37.460;2023-02-14T01:36:29;98381.00;;;1.12;82.13
44027;BME280;29696;55.698;37.460;2023-02-14T01:39:01;98383.00;;;1.08;81.90
44027;BME280;29696;55.698;37.460;2023-02-14T01:41:30;98391.63;;;1.09;82.14
44027;BME280;29696;55.698;37.460;2023-02-14T01:44:01;98379.97;;;1.02;82.12
44027;BME280;29696;55.698;37.460;2023-02-14T01:46:30;98379.13;;;1.01;82.84
44027;BME280;29696;55.698;37.460;2023-02-14T01:49:08;98387.59;;;1.05;83.23
44027;BME280;29696;55.698;37.460;2023-02-14T01:51:38;98380.06;;;1.00;83.11
44027;BME280;29696;55.698;37.460;2023-02-14T01:54:07;98383.63;;;0.99;83.48
44027;BME280;29696;55.698;37.460;2023-02-14T01:56:40;98385.81;;;1.05;83.84
44027;BME280;29696;55.698;37.460;2023-02-14T01:59:13;98392.66;;;1.06;84.01
44027;BME280;29696;55.698;37.460;2023-02-14T02:01:44;98381.03;;;0.99;84.09
44027;BME280;29696;55.698;37.460;2023-02-14T02:04:15;98387.78;;;1.02;84.19
44027;BME280;29696;55.698;37.460;2023-02-14T02:06:47;98384.25;;;1.03;84.35
44027;BME280;29696;55.698;37.460;2023-02-14T02:09:38;98394.22;;;1.09;84.50
44027;BME280;29696;55.698;37.460;2023-02-14T02:12:07;98388.91;;;0.98;84.73
44027;BME280;29696;55.698;37.460;2023-02-14T02:14:33;98399.13;;;1.01;85.07
44027;BME280;29696;55.698;37.460;2023-02-14T02:24:20;98408.06;;;0.97;85.51
44027;BME280;29696;55.698;37.460;2023-02-14T02:30:33;98422.84;;;0.96;85.94
44027;BME280;29696;55.698;37.460;2023-02-14T02:46:23;98416.50;;;1.00;87.36
44027;BME280;29696;55.698;37.460;2023-02-14T02:52:47;98412.84;;;1.03;87.49
44027;BME280;29696;55.698;37.460;2023-02-14T02:56:02;98410.03;;;1.06;87.59
44027;BME280;29696;55.698;37.460;2023-02-14T02:58:56;98399.22;;;0.99;87.57
44027;BME280;29696;55.698;37.460;2023-02-14T03:01:28;98421.69;;;1.00;87.29
44027;BME280;29696;55.698;37.460;2023-02-14T03:03:59;98415.13;;;0.95;87.14
44027;BME280;29696;55.698;37.460;2023-02-14T03:06:46;98412.00;;;0.89;86.81
44027;BME280;29696;55.698;37.460;2023-02-14T03:12:37;98412.22;;;0.86;87.02
44027;BME280;29696;55.698;37.460;2023-02-14T03:15:25;98413.78;;;0.89;86.98
44027;BME280;29696;55.698;37.460;2023-02-14T03:18:15;98423.06;;;0.93;86.85
44027;BME280;29696;55.698;37.460;2023-02-14T03:20:52;98407.88;;;0.87;86.81
44027;BME280;29696;55.698;37.460;2023-02-14T03:26:16;98413.47;;;0.94;86.85
44027;BME280;29696;55.698;37.460;2023-02-14T03:32:16;98420.88;;;1.00;86.50
44027;BME280;29696;55.698;37.460;2023-02-14T03:38:26;98421.50;;;1.03;85.97
44027;BME280;29696;55.698;37.460;2023-02-14T03:41:00;98426.50;;;0.94;85.62
44027;BME280;29696;55.698;37.460;2023-02-14T03:43:35;98424.72;;;0.94;85.50
44027;BME280;29696;55.698;37.460;2023-02-14T03:46:12;98431.91;;;0.90;85.93
44027;BME280;29696;55.698;37.460;2023-02-14T03:48:41;98427.19;;;0.83;85.84
44027;BME280;29696;55.698;37.460;2023-02-14T03:51:10;98428.13;;;0.82;85.97
44027;BME280;29696;55.698;37.460;2023-02-14T03:53:42;98435.81;;;0.83;86.24
44027;BME280;29696;55.698;37.460;2023-02-14T03:59:16;98436.97;;;0.79;86.30
44027;BME280;29696;55.698;37.460;2023-02-14T04:01:49;98440.41;;;0.80;86.41
44027;BME280;29696;55.698;37.460;2023-02-14T04:04:20;98440.72;;;0.75;86.43
44027;BME280;29696;55.698;37.460;2023-02-14T04:06:47;98440.38;;;0.67;86.49
44027;BME280;29696;55.698;37.460;2023-02-14T04:09:14;98437.25;;;0.62;86.51
44027;BME280;29696;55.698;37.460;2023-02-14T04:11:40;98441.81;;;0.58;86.68
44027;BME280;29696;55.698;37.460;2023-02-14T04:14:07;98439.50;;;0.54;87.08
44027;BME280;29696;55.698;37.460;2023-02-14T04:16:34;98447.41;;;0.52;87.02
44027;BME280;29696;55.698;37.460;2023-02-14T04:19:20;98449.06;;;0.53;87.13
44027;BME280;29696;55.698;37.460;2023-02-14T04:21:50;98453.25;;;0.56;87.45
44027;BME280;29696;55.698;37.460;2023-02-14T04:24:17;98461.03;;;0.56;87.41
44027;BME280;29696;55.698;37.460;2023-02-14T04:26:44;98458.25;;;0.59;87.71
44027;BME280;29696;55.698;37.460;2023-02-14T04:29:42;98465.56;;;0.66;87.81
44027;BME280;29696;55.698;37.460;2023-02-14T04:32:11;98461.38;;;0.64;87.53
44027;BME280;29696;55.698;37.460;2023-02-14T04:34:38;98469.19;;;0.64;87.31
44027;BME280;29696;55.698;37.460;2023-02-14T04:37:05;98479.66;;;0.62;86.88
44027;BME280;29696;55.698;37.460;2023-02-14T04:39:32;98487.38;;;0.64;86.87
44027;BME280;29696;55.698;37.460;2023-02-14T04:41:59;98474.78;;;0.58;86.51
44027;BME280;29696;55.698;37.460;2023-02-14T04:44:26;98484.16;;;0.60;86.29
44027;BME280;29696;55.698;37.460;2023-02-14T04:46:52;98486.22;;;0.55;85.87
44027;BME280;29696;55.698;37.460;2023-02-14T04:49:18;98491.69;;;0.51;85.33
44027;BME280;29696;55.698;37.460;2023-02-14T04:51:45;98492.00;;;0.46;85.56
44027;BME280;29696;55.698;37.460;2023-02-14T04:54:11;98489.28;;;0.48;85.83
44027;BME280;29696;55.698;37.460;2023-02-14T04:56:37;98495.25;;;0.50;85.79
44027;BME280;29696;55.698;37.460;2023-02-14T04:59:04;98507.84;;;0.56;85.89
44027;BME280;29696;55.698;37.460;2023-02-14T05:01:30;98513.97;;;0.55;85.32
44027;BME280;29696;55.698;37.460;2023-02-14T05:03:57;98506.81;;;0.58;85.00
44027;BME280;29696;55.698;37.460;2023-02-14T05:06:23;98516.06;;;0.62;84.52
44027;BME280;29696;55.698;37.460;2023-02-14T05:08:49;98522.00;;;0.64;83.82
44027;BME280;29696;55.698;37.460;2023-02-14T05:11:16;98526.28;;;0.65;83.44
44027;BME280;29696;55.698;37.460;2023-02-14T05:13:42;98522.84;;;0.65;83.01
44027;BME280;29696;55.698;37.460;2023-02-14T05:16:08;98523.59;;;0.67;82.64
44027;BME280;29696;55.698;37.460;2023-02-14T05:18:35;98528.16;;;0.63;81.93
44027;BME280;29696;55.698;37.460;2023-02-14T05:21:01;98536.66;;;0.65;81.72
44027;BME280;29696;55.698;37.460;2023-02-14T05:23:27;98540.13;;;0.66;81.72
44027;BME280;29696;55.698;37.460;2023-02-14T05:25:53;98547.81;;;0.67;81.27
44027;BME280;29696;55.698;37.460;2023-02-14T05:28:20;98538.16;;;0.70;81.74
44027;BME280;29696;55.698;37.460;2023-02-14T05:30:46;98542.41;;;0.71;81.57
44027;BME280;29696;55.698;37.460;2023-02-14T05:33:12;98543.16;;;0.73;81.11
44027;BME280;29696;55.698;37.460;2023-02-14T05:35:39;98547.97;;;0.79;80.96
44027;BME280;29696;55.698;37.460;2023-02-14T05:38:05;98554.34;;;0.87;81.01
44027;BME280;29696;55.698;37.460;2023-02-14T05:40:31;98555.72;;;0.93;80.89
44027;BME280;29696;55.698;37.460;2023-02-14T05:42:59;98550.00;;;1.01;80.86
44027;BME280;29696;55.698;37.460;2023-02-14T05:45:25;98550.63;;;1.04;80.48
44027;BME280;29696;55.698;37.460;2023-02-14T05:47:51;98551.16;;;1.09;80.37
44027;BME280;29696;55.698;37.460;2023-02-14T05:50:18;98556.97;;;1.13;79.66
44027;BME280;29696;55.698;37.460;2023-02-14T05:52:45;98550.94;;;1.12;79.22
44027;BME280;29696;55.698;37.460;2023-02-14T05:55:11;98556.06;;;1.14;79.26
44027;BME280;29696;55.698;37.460;2023-02-14T05:57:38;98555.34;;;1.12;79.55
44027;BME280;29696;55.698;37.460;2023-02-14T06:00:06;98558.75;;;1.12;80.18
44027;BME280;29696;55.698;37.460;2023-02-14T06:02:39;98554.31;;;1.14;80.36
44027;BME280;29696;55.698;37.460;2023-02-14T06:05:06;98557.72;;;1.15;80.41
44027;BME280;29696;55.698;37.460;2023-02-14T06:07:32;98557.63;;;1.17;80.74
44027;BME280;29696;55.698;37.460;2023-02-14T06:09:59;98560.00;;;1.20;80.83
44027;BME280;29696;55.698;37.460;2023-02-14T06:12:25;98555.56;;;1.22;80.72
44027;BME280;29696;55.698;37.460;2023-02-14T06:14:51;98550.88;;;1.27;80.76
44027;BME280;29696;55.698;37.460;2023-02-14T06:17:17;98544.53;;;1.31;81.19
44027;BME280;29696;55.698;37.460;2023-02-14T06:19:44;98549.44;;;1.35;81.16
44027;BME280;29696;55.698;37.460;2023-02-14T06:22:10;98552.53;;;1.41;81.66
44027;BME280;29696;55.698;37.460;2023-02-14T06:24:37;98554.66;;;1.48;81.93
44027;BME280;29696;55.698;37.460;2023-02-14T06:27:03;98548.19;;;1.54;81.57
44027;BME280;29696;55.698;37.460;2023-02-14T06:29:29;98558.19;;;1.60;81.08
44027;BME280;29696;55.698;37.460;2023-02-14T06:31:55;98553.94;;;1.59;80.51
44027;BME280;29696;55.698;37.460;2023-02-14T06:34:22;98562.56;;;1.59;80.86
44027;BME280;29696;55.698;37.460;2023-02-14T06:36:48;98556.31;;;1.62;81.22
44027;BME280;29696;55.698;37.460;2023-02-14T06:39:14;98563.31;;;1.62;81.41
44027;BME280;29696;55.698;37.460;2023-02-14T06:41:41;98569.53;;;1.72;81.91
44027;BME280;29696;55.698;37.460;2023-02-14T06:44:07;98577.78;;;1.78;82.30
44027;BME280;29696;55.698;37.460;2023-02-14T06:46:35;98576.94;;;1.78;81.91
44027;BME280;29696;55.698;37.460;2023-02-14T06:49:01;98570.69;;;1.80;81.16
44027;BME280;29696;55.698;37.460;2023-02-14T06:51:28;98578.94;;;1.74;80.87
44027;BME280;29696;55.698;37.460;2023-02-14T06:53:54;98588.06;;;1.67;81.22
44027;BME280;29696;55.698;37.460;2023-02-14T06:56:20;98588.41;;;1.63;81.69
44027;BME280;29696;55.698;37.460;2023-02-14T06:58:46;98584.31;;;1.58;82.17
44027;BME280;29696;55.698;37.460;2023-02-14T07:01:13;98601.84;;;1.56;82.67
44027;BME280;29696;55.698;37.460;2023-02-14T07:03:39;98596.97;;;1.65;83.19
44027;BME280;29696;55.698;37.460;2023-02-14T07:06:05;98590.78;;;1.78;83.24
44027;BME280;29696;55.698;37.460;2023-02-14T07:08:31;98596.72;;;2.06;83.69
44027;BME280;29696;55.698;37.460;2023-02-14T07:10:58;98609.53;;;2.22;82.83
44027;BME280;29696;55.698;37.460;2023-02-14T07:13:24;98607.94;;;2.32;81.81
44027;BME280;29696;55.698;37.460;2023-02-14T07:15:51;98602.22;;;2.27;79.87
44027;BME280;29696;55.698;37.460;2023-02-14T07:18:17;98603.91;;;2.28;79.58
44027;BME280;29696;55.698;37.460;2023-02-14T07:20:43;98605.25;;;2.21;78.49
44027;BME280;29696;55.698;37.460;2023-02-14T07:23:12;98616.31;;;2.12;78.58
44027;BME280;29696;55.698;37.460;2023-02-14T07:25:39;98614.47;;;2.01;78.72
44027;BME280;29696;55.698;37.460;2023-02-14T07:28:05;98619.03;;;2.10;79.70
44027;BME280;29696;55.698;37.460;2023-02-14T07:30:32;98617.03;;;2.14;79.42
44027;BME280;29696;55.698;37.460;2023-02-14T07:32:58;98622.56;;;2.22;79.97
44027;BME280;29696;55.698;37.460;2023-02-14T07:35:25;98618.38;;;2.32;80.34
44027;BME280;29696;55.698;37.460;2023-02-14T07:37:51;98619.00;;;2.36;79.30
44027;BME280;29696;55.698;37.460;2023-02-14T07:40:18;98623.81;;;2.29;77.77
44027;BME280;29696;55.698;37.460;2023-02-14T07:42:57;98637.66;;;2.29;78.10
44027;BME280;29696;55.698;37.460;2023-02-14T07:45:24;98629.88;;;2.17;78.46
44027;BME280;29696;55.698;37.460;2023-02-14T07:47:52;98633.19;;;2.06;78.61
44027;BME280;29696;55.698;37.460;2023-02-14T07:50:21;98638.31;;;2.08;80.36
44027;BME280;29696;55.698;37.460;2023-02-14T07:52:48;98632.78;;;1.99;80.70
44027;BME280;29696;55.698;37.460;2023-02-14T07:55:14;98633.22;;;1.93;80.71
44027;BME280;29696;55.698;37.460;2023-02-14T07:57:41;98636.22;;;1.87;80.48
44027;BME280;29696;55.698;37.460;2023-02-14T08:00:08;98644.88;;;1.88;80.88
44027;BME280;29696;55.698;37.460;2023-02-14T08:02:40;98651.84;;;1.87;81.26
44027;BME280;29696;55.698;37.460;2023-02-14T08:05:07;98645.00;;;1.99;81.51
44027;BME280;29696;55.698;37.460;2023-02-14T08:07:33;98646.75;;;1.98;80.00
44027;BME280;29696;55.698;37.460;2023-02-14T08:09:59;98660.72;;;1.85;79.97
44027;BME280;29696;55.698;37.460;2023-02-14T08:12:26;98652.88;;;1.59;79.88
44027;BME280;29696;55.698;37.460;2023-02-14T08:15:11;98649.41;;;1.46;81.78
44027;BME280;29696;55.698;37.460;2023-02-14T08:17:55;98659.19;;;1.42;83.02
44027;BME280;29696;55.698;37.460;2023-02-14T08:20:22;98670.16;;;1.47;84.03
44027;BME280;29696;55.698;37.460;2023-02-14T08:22:48;98658.97;;;1.45;83.93
44027;BME280;29696;55.698;37.460;2023-02-14T08:25:14;98674.06;;;1.40;82.65
44027;BME280;29696;55.698;37.460;2023-02-14T08:27:41;98676.22;;;1.33;82.37
44027;BME280;29696;55.698;37.460;2023-02-14T08:30:07;98685.00;;;1.32;81.90
44027;BME280;29696;55.698;37.460;2023-02-14T08:32:34;98688.91;;;1.25;81.63
44027;BME280;29696;55.698;37.460;2023-02-14T08:35:00;98687.84;;;1.15;81.57
44027;BME280;29696;55.698;37.460;2023-02-14T08:37:26;98690.91;;;1.07;81.88
44027;BME280;29696;55.698;37.460;2023-02-14T08:39:53;98699.78;;;1.05;82.81
44027;BME280;29696;55.698;37.460;2023-02-14T08:42:19;98703.59;;;0.99;83.56
44027;BME280;29696;55.698;37.460;2023-02-14T08:44:45;98700.41;;;1.08;84.00
44027;BME280;29696;55.698;37.460;2023-02-14T08:47:11;98703.28;;;1.31;84.68
44027;BME280;29696;55.698;37.460;2023-02-14T08:49:38;98708.06;;;1.51;85.11
44027;BME280;29696;55.698;37.460;2023-02-14T08:52:04;98703.81;;;1.63;83.91
44027;BME280;29696;55.698;37.460;2023-02-14T08:54:30;98702.88;;;1.64;81.83
44027;BME280;29696;55.698;37.460;2023-02-14T08:56:57;98715.41;;;1.72;81.10
44027;BME280;29696;55.698;37.460;2023-02-14T08:59:24;98722.38;;;1.71;79.05
44027;BME280;29696;55.698;37.460;2023-02-14T09:01:50;98721.25;;;1.75;78.76
44027;BME280;29696;55.698;37.460;2023-02-14T09:04:17;98721.25;;;1.75;78.40
44027;BME280;29696;55.698;37.460;2023-02-14T09:06:43;98733.22;;;1.78;76.99
44027;BME280;29696;55.698;37.460;2023-02-14T09:09:09;98711.03;;;1.85;76.22
44027;BME280;29696;55.698;37.460;2023-02-14T09:11:36;98731.06;;;1.97;75.51
44027;BME280;29696;55.698;37.460;2023-02-14T09:14:02;98744.63;;;2.15;74.25
44027;BME280;29696;55.698;37.460;2023-02-14T09:16:29;98747.97;;;2.30;72.82
44027;BME280;29696;55.698;37.460;2023-02-14T09:18:55;98736.53;;;2.45;73.39
44027;BME280;29696;55.698;37.460;2023-02-14T09:21:25;98741.94;;;2.55;72.14
44027;BME280;29696;55.698;37.460;2023-02-14T09:23:51;98745.59;;;2.65;71.12
44027;BME280;29696;55.698;37.460;2023-02-14T09:26:18;98744.94;;;2.87;70.27
44027;BME280;29696;55.698;37.460;2023-02-14T09:28:45;98755.66;;;2.95;69.14
44027;BME280;29696;55.698;37.460;2023-02-14T09:31:32;98764.84;;;3.01;69.55
44027;BME280;29696;55.698;37.460;2023-02-14T09:33:58;98765.31;;;2.69;68.73
44027;BME280;29696;55.698;37.460;2023-02-14T09:36:43;98757.28;;;2.47;68.94
44027;BME280;29696;55.698;37.460;2023-02-14T09:39:10;98770.66;;;2.42;69.79
44027;BME280;29696;55.698;37.460;2023-02-14T09:44:59;98772.00;;;2.61;69.46
44027;BME280;29696;55.698;37.460;2023-02-14T09:50:41;98777.19;;;2.73;69.13
44027;BME280;29696;55.698;37.460;2023-02-14T09:53:35;98774.69;;;2.85;70.65
44027;BME280;29696;55.698;37.460;2023-02-14T09:56:32;98784.59;;;2.80;68.70
44027;BME280;29696;55.698;37.460;2023-02-14T10:03:02;98795.56;;;2.72;69.60
44027;BME280;29696;55.698;37.460;2023-02-14T10:05:35;98799.22;;;2.57;69.12
44027;BME280;29696;55.698;37.460;2023-02-14T10:11:18;98813.50;;;2.38;67.87
44027;BME280;29696;55.698;37.460;2023-02-14T10:13:50;98814.22;;;2.27;69.14
44027;BME280;29696;55.698;37.460;2023-02-14T10:16:31;98821.38;;;2.24;68.99
44027;BME280;29696;55.698;37.460;2023-02-14T10:19:31;98829.81;;;2.15;69.31
44027;BME280;29696;55.698;37.460;2023-02-14T10:22:18;98836.25;;;2.09;69.58
44027;BME280;29696;55.698;37.460;2023-02-14T10:24:51;98839.19;;;2.04;69.47
44027;BME280;29696;55.698;37.460;2023-02-14T10:27:42;98847.34;;;2.13;69.67
44027;BME280;29696;55.698;37.460;2023-02-14T10:30:16;98841.88;;;2.03;69.31
44027;BME280;29696;55.698;37.460;2023-02-14T10:32:58;98838.56;;;2.01;68.30
44027;BME280;29696;55.698;37.460;2023-02-14T10:36:22;98857.81;;;1.98;68.11
44027;BME280;29696;55.698;37.460;2023-02-14T10:39:05;98852.88;;;1.94;68.55
44027;BME280;29696;55.698;37.460;2023-02-14T10:48:36;98870.09;;;2.23;67.21
44027;BME280;29696;55.698;37.460;2023-02-14T10:51:29;98871.88;;;2.36;66.93
44027;BME280;29696;55.698;37.460;2023-02-14T10:57:16;98878.19;;;2.46;66.92
44027;BME280;29696;55.698;37.460;2023-02-14T11:00:18;98878.41;;;2.56;66.31
44027;BME280;29696;55.698;37.460;2023-02-14T11:02:50;98872.22;;;2.44;65.71
44027;BME280;29696;55.698;37.460;2023-02-14T11:05:34;98877.44;;;2.44;65.94
44027;BME280;29696;55.698;37.460;2023-02-14T11:11:29;98898.16;;;2.33;66.99
44027;BME280;29696;55.698;37.460;2023-02-14T11:13:57;98887.31;;;2.26;67.38
44027;BME280;29696;55.698;37.460;2023-02-14T11:16:32;98900.88;;;2.31;67.73
44027;BME280;29696;55.698;37.460;2023-02-14T11:19:33;98894.13;;;2.41;68.76
44027;BME280;29696;55.698;37.460;2023-02-14T11:22:00;98910.69;;;2.27;67.78
44027;BME280;29696;55.698;37.460;2023-02-14T11:24:47;98911.47;;;2.42;69.17
44027;BME280;29696;55.698;37.460;2023-02-14T11:27:16;98914.19;;;2.26;68.90
44027;BME280;29696;55.698;37.460;2023-02-14T11:29:45;98908.00;;;2.15;69.58
44027;BME280;29696;55.698;37.460;2023-02-14T11:32:28;98920.84;;;2.18;70.19
44027;BME280;29696;55.698;37.460;2023-02-14T11:35:03;98934.09;;;2.00;70.30
44027;BME280;29696;55.698;37.460;2023-02-14T11:38:05;98936.53;;;2.03;71.15
44027;BME280;29696;55.698;37.460;2023-02-14T11:40:38;98927.16;;;2.01;70.78
44027;BME280;29696;55.698;37.460;2023-02-14T11:43:32;98921.03;;;2.15;70.71
44027;BME280;29696;55.698;37.460;2023-02-14T11:46:31;98922.03;;;2.26;70.06
44027;BME280;29696;55.698;37.460;2023-02-14T11:49:05;98923.59;;;2.29;68.62
44027;BME280;29696;55.698;37.460;2023-02-14T11:51:41;98916.38;;;2.20;67.22
44027;BME280;29696;55.698;37.460;2023-02-14T11:54:23;98924.34;;;2.31;67.04
44027;BME280;29696;55.698;37.460;2023-02-14T11:57:01;98935.97;;;2.40;67.14
44027;BME280;29696;55.698;37.460;2023-02-14T12:02:47;98942.56;;;2.58;66.19
44027;BME280;29696;55.698;37.460;2023-02-14T12:05:46;98947.16;;;2.55;65.62
44027;BME280;29696;55.698;37.460;2023-02-14T12:08:14;98944.19;;;2.34;64.72
44027;BME280;29696;55.698;37.460;2023-02-14T12:10:40;98943.63;;;2.28;65.35
44027;BME280;29696;55.698;37.460;2023-02-14T12:13:27;98959.63;;;2.37;65.45
44027;BME280;29696;55.698;37.460;2023-02-14T12:15:55;98969.34;;;2.20;65.60
44027;BME280;29696;55.698;37.460;2023-02-14T12:18:46;98967.16;;;2.27;65.78
44027;BME280;29696;55.698;37.460;2023-02-14T12:21:46;98967.69;;;2.19;65.32
44027;BME280;29696;55.698;37.460;2023-02-14T12:24:41;98978.94;;;2.20;65.89
44027;BME280;29696;55.698;37.460;2023-02-14T12:27:35;98971.13;;;2.20;66.20
44027;BME280;29696;55.698;37.460;2023-02-14T12:30:24;98984.03;;;2.21;66.14
44027;BME280;29696;55.698;37.460;2023-02-14T12:32:52;98977.66;;;2.13;66.05
44027;BME280;29696;55.698;37.460;2023-02-14T12:40:05;98998.81;;;2.35;65.98
44027;BME280;29696;55.698;37.460;2023-02-14T13:22:50;99083.09;;;1.50;64.94
44027;BME280;29696;55.698;37.460;2023-02-14T13:25:27;99085.06;;;1.60;65.14
44027;BME280;29696;55.698;37.460;2023-02-14T13:28:03;99090.72;;;1.53;64.98
44027;BME280;29696;55.698;37.460;2023-02-14T13:30:32;99089.97;;;1.51;65.29
44027;BME280;29696;55.698;37.460;2023-02-14T13:33:05;99082.59;;;1.43;65.32
44027;BME280;29696;55.698;37.460;2023-02-14T13:35:33;99108.50;;;1.30;66.08
44027;BME280;29696;55.698;37.460;2023-02-14T13:38:03;99108.69;;;1.27;66.54
44027;BME280;29696;55.698;37.460;2023-02-14T13:40:33;99098.63;;;1.21;66.72
44027;BME280;29696;55.698;37.460;2023-02-14T13:43:01;99120.38;;;1.20;66.49
44027;BME280;29696;55.698;37.460;2023-02-14T13:45:51;99132.22;;;1.26;67.13
44027;BME280;29696;55.698;37.460;2023-02-14T13:48:27;99135.16;;;1.20;67.29
44027;BME280;29696;55.698;37.460;2023-02-14T13:51:04;99128.72;;;1.11;67.78
44027;BME280;29696;55.698;37.460;2023-02-14T13:53:54;99142.03;;;1.21;68.17
44027;BME280;29696;55.698;37.460;2023-02-14T13:56:41;99142.94;;;1.20;68.26
44027;BME280;29696;55.698;37.460;2023-02-14T13:59:25;99146.66;;;1.16;68.09
44027;BME280;29696;55.698;37.460;2023-02-14T14:01:52;99154.31;;;1.03;67.57
44027;BME280;29696;55.698;37.460;2023-02-14T14:04:47;99160.03;;;1.09;68.43
44027;BME280;29696;55.698;37.460;2023-02-14T14:07:16;99167.41;;;1.01;68.30
44027;BME280;29696;55.698;37.460;2023-02-14T14:10:04;99152.50;;;1.05;68.87
44027;BME280;29696;55.698;37.460;2023-02-14T14:12:53;99176.09;;;1.02;68.90
44027;BME280;29696;55.698;37.460;2023-02-14T14:15:20;99171.78;;;0.85;69.08
44027;BME280;29696;55.698;37.460;2023-02-14T14:20:59;99192.59;;;0.85;68.99
44027;BME280;29696;55.698;37.460;2023-02-14T14:23:35;99201.00;;;0.90;69.42
44027;BME280;29696;55.698;37.460;2023-02-14T14:29:15;99198.63;;;0.85;69.73
44027;BME280;29696;55.698;37.460;2023-02-14T14:31:42;99193.72;;;0.81;69.78
44027;BME280;29696;55.698;37.460;2023-02-14T14:34:15;99204.69;;;0.86;70.18
44027;BME280;29696;55.698;37.460;2023-02-14T14:36:42;99207.53;;;0.81;70.29
44027;BME280;29696;55.698;37.460;2023-02-14T14:39:09;99201.66;;;0.78;70.58
44027;BME280;29696;55.698;37.460;2023-02-14T14:41:38;99210.16;;;0.81;70.78
44027;BME280;29696;55.698;37.460;2023-02-14T14:44:06;99217.94;;;0.81;70.74
44027;BME280;29696;55.698;37.460;2023-02-14T14:46:32;99212.81;;;0.80;71.15
44027;BME280;29696;55.698;37.460;2023-02-14T14:48:59;99208.88;;;0.73;71.36
44027;BME280;29696;55.698;37.460;2023-02-14T14:51:30;99226.66;;;0.80;71.43
44027;BME280;29696;55.698;37.460;2023-02-14T14:54:04;99230.84;;;0.83;71.99
44027;BME280;29696;55.698;37.460;2023-02-14T14:56:37;99237.06;;;0.80;71.98
44027;BME280;29696;55.698;37.460;2023-02-14T14:59:33;99237.75;;;0.84;72.47
44027;BME280;29696;55.698;37.460;2023-02-14T15:02:01;99234.56;;;0.79;72.38
44027;BME280;29696;55.698;37.460;2023-02-14T15:04:48;99240.09;;;0.88;72.71
44027;BME280;29696;55.698;37.460;2023-02-14T15:07:37;99245.22;;;0.90;72.60
44027;BME280;29696;55.698;37.460;2023-02-14T15:10:20;99256.88;;;0.83;72.59
44027;BME280;29696;55.698;37.460;2023-02-14T15:12:47;99243.53;;;0.73;72.65
44027;BME280;29696;55.698;37.460;2023-02-14T15:15:33;99244.47;;;0.72;72.82
44027;BME280;29696;55.698;37.460;2023-02-14T15:18:04;99255.59;;;0.74;73.23
44027;BME280;29696;55.698;37.460;2023-02-14T15:20:31;99265.31;;;0.71;73.24
44027;BME280;29696;55.698;37.460;2023-02-14T15:22:57;99266.31;;;0.68;74.01
44027;BME280;29696;55.698;37.460;2023-02-14T15:25:30;99277.72;;;0.65;74.68
44027;BME280;29696;55.698;37.460;2023-02-14T15:27:57;99275.09;;;0.50;75.71
44027;BME280;29696;55.698;37.460;2023-02-14T15:30:32;99292.50;;;0.48;76.86
44027;BME280;29696;55.698;37.460;2023-02-14T15:33:00;99276.66;;;0.36;78.30